Farnam, Nebraska
Current Conditions -  °F | °C
As of 8:35 AM on Friday 28 Nov 2014 (Local Time) from KLXN Reporting Station
Clear Clear  
Wind Chill: 20°   Ceiling: Unl
Heat Index: 26°   Visibility: 10mi
Dew Point: 22°   Wind: 5mph
Humidity: 88%   Direction: 250°WSW
Pressure: 29.84"   Gusts: NA
Location:  40.71°N, 100.21°W
Report Text: KLXN 281435Z AUTO 25004KT 10SM CLR M04/M05 A2984 RMK AO2 T10361053
Loading
Personal Weather Stations






























Interactive Weather Map New forecast layout! Learn more

10-Day Weather Forecast

Advertisements
Track Severe Weather on mobile